sensor_id;sensor_type;location;lat;lon;timestamp;P1;durP1;ratioP1;P2;durP2;ratioP2
32094;SDS011;18608;53.688;10.748;2022-12-05T00:01:57;35.87;;;16.53;;
32094;SDS011;18608;53.688;10.748;2022-12-05T00:04:23;35.03;;;18.20;;
32094;SDS011;18608;53.688;10.748;2022-12-05T00:06:49;37.20;;;18.63;;
32094;SDS011;18608;53.688;10.748;2022-12-05T00:09:15;28.17;;;15.90;;
32094;SDS011;18608;53.688;10.748;2022-12-05T00:11:41;30.53;;;15.83;;
32094;SDS011;18608;53.688;10.748;2022-12-05T00:14:08;36.43;;;19.60;;
32094;SDS011;18608;53.688;10.748;2022-12-05T00:16:35;26.53;;;14.07;;
32094;SDS011;18608;53.688;10.748;2022-12-05T00:19:02;34.23;;;17.57;;
32094;SDS011;18608;53.688;10.748;2022-12-05T00:21:31;34.10;;;15.97;;
32094;SDS011;18608;53.688;10.748;2022-12-05T00:23:59;39.67;;;18.77;;
32094;SDS011;18608;53.688;10.748;2022-12-05T00:26:26;35.17;;;16.53;;
32094;SDS011;18608;53.688;10.748;2022-12-05T00:28:52;29.07;;;13.00;;
32094;SDS011;18608;53.688;10.748;2022-12-05T00:31:19;29.43;;;16.70;;
32094;SDS011;18608;53.688;10.748;2022-12-05T00:33:47;35.20;;;16.13;;
32094;SDS011;18608;53.688;10.748;2022-12-05T00:36:17;32.70;;;14.33;;
32094;SDS011;18608;53.688;10.748;2022-12-05T00:38:45;36.07;;;17.00;;
32094;SDS011;18608;53.688;10.748;2022-12-05T00:41:12;43.83;;;21.50;;
32094;SDS011;18608;53.688;10.748;2022-12-05T00:43:42;37.73;;;17.33;;
32094;SDS011;18608;53.688;10.748;2022-12-05T00:46:10;39.57;;;19.07;;
32094;SDS011;18608;53.688;10.748;2022-12-05T00:48:39;32.97;;;16.37;;
32094;SDS011;18608;53.688;10.748;2022-12-05T00:51:10;37.27;;;16.50;;
32094;SDS011;18608;53.688;10.748;2022-12-05T00:53:37;34.33;;;16.77;;
32094;SDS011;18608;53.688;10.748;2022-12-05T00:56:06;32.67;;;16.30;;
32094;SDS011;18608;53.688;10.748;2022-12-05T00:58:37;42.23;;;16.50;;
32094;SDS011;18608;53.688;10.748;2022-12-05T01:01:10;34.53;;;15.87;;
32094;SDS011;18608;53.688;10.748;2022-12-05T01:03:36;28.40;;;16.13;;
32094;SDS011;18608;53.688;10.748;2022-12-05T01:06:02;48.33;;;19.60;;
32094;SDS011;18608;53.688;10.748;2022-12-05T01:08:30;35.47;;;19.23;;
32094;SDS011;18608;53.688;10.748;2022-12-05T01:10:56;29.63;;;15.13;;
32094;SDS011;18608;53.688;10.748;2022-12-05T01:13:23;41.07;;;19.77;;
32094;SDS011;18608;53.688;10.748;2022-12-05T01:15:49;35.37;;;18.50;;
32094;SDS011;18608;53.688;10.748;2022-12-05T01:18:16;37.33;;;19.03;;
32094;SDS011;18608;53.688;10.748;2022-12-05T01:20:42;24.73;;;12.60;;
32094;SDS011;18608;53.688;10.748;2022-12-05T01:23:07;39.87;;;20.40;;
32094;SDS011;18608;53.688;10.748;2022-12-05T01:25:34;46.03;;;18.97;;
32094;SDS011;18608;53.688;10.748;2022-12-05T01:28:03;33.00;;;14.53;;
32094;SDS011;18608;53.688;10.748;2022-12-05T01:30:28;40.80;;;16.43;;
32094;SDS011;18608;53.688;10.748;2022-12-05T01:32:54;46.00;;;20.87;;
32094;SDS011;18608;53.688;10.748;2022-12-05T01:35:19;34.20;;;16.73;;
32094;SDS011;18608;53.688;10.748;2022-12-05T01:37:45;41.20;;;18.20;;
32094;SDS011;18608;53.688;10.748;2022-12-05T01:40:10;31.93;;;16.37;;
32094;SDS011;18608;53.688;10.748;2022-12-05T01:42:37;40.30;;;17.27;;
32094;SDS011;18608;53.688;10.748;2022-12-05T01:45:11;41.37;;;18.37;;
32094;SDS011;18608;53.688;10.748;2022-12-05T01:47:39;29.30;;;12.33;;
32094;SDS011;18608;53.688;10.748;2022-12-05T01:50:05;52.90;;;20.60;;
32094;SDS011;18608;53.688;10.748;2022-12-05T01:52:31;44.37;;;20.20;;
32094;SDS011;18608;53.688;10.748;2022-12-05T01:55:09;46.43;;;17.33;;
32094;SDS011;18608;53.688;10.748;2022-12-05T01:57:38;44.40;;;21.37;;
32094;SDS011;18608;53.688;10.748;2022-12-05T02:00:08;48.07;;;20.33;;
32094;SDS011;18608;53.688;10.748;2022-12-05T02:02:36;38.60;;;16.90;;
32094;SDS011;18608;53.688;10.748;2022-12-05T02:05:06;45.07;;;21.47;;
32094;SDS011;18608;53.688;10.748;2022-12-05T02:07:35;49.03;;;18.90;;
32094;SDS011;18608;53.688;10.748;2022-12-05T02:10:04;47.17;;;21.03;;
32094;SDS011;18608;53.688;10.748;2022-12-05T02:12:31;48.17;;;20.37;;
32094;SDS011;18608;53.688;10.748;2022-12-05T02:24:02;55.50;;;20.30;;
32094;SDS011;18608;53.688;10.748;2022-12-05T02:26:47;39.87;;;17.70;;
32094;SDS011;18608;53.688;10.748;2022-12-05T02:32:51;37.03;;;16.47;;
32094;SDS011;18608;53.688;10.748;2022-12-05T02:46:07;51.30;;;23.47;;
32094;SDS011;18608;53.688;10.748;2022-12-05T02:48:36;41.60;;;17.70;;
32094;SDS011;18608;53.688;10.748;2022-12-05T02:51:04;41.40;;;19.47;;
32094;SDS011;18608;53.688;10.748;2022-12-05T02:53:33;64.40;;;23.40;;
32094;SDS011;18608;53.688;10.748;2022-12-05T02:56:01;57.87;;;22.60;;
32094;SDS011;18608;53.688;10.748;2022-12-05T02:58:33;48.53;;;22.30;;
32094;SDS011;18608;53.688;10.748;2022-12-05T03:01:01;62.53;;;24.67;;
32094;SDS011;18608;53.688;10.748;2022-12-05T03:03:27;67.43;;;26.03;;
32094;SDS011;18608;53.688;10.748;2022-12-05T03:08:34;51.77;;;21.63;;
32094;SDS011;18608;53.688;10.748;2022-12-05T03:11:07;60.30;;;21.83;;
32094;SDS011;18608;53.688;10.748;2022-12-05T03:13:54;65.43;;;21.33;;
32094;SDS011;18608;53.688;10.748;2022-12-05T03:16:22;65.47;;;24.10;;
32094;SDS011;18608;53.688;10.748;2022-12-05T03:18:52;66.60;;;25.93;;
32094;SDS011;18608;53.688;10.748;2022-12-05T03:21:29;60.17;;;21.67;;
32094;SDS011;18608;53.688;10.748;2022-12-05T03:24:04;45.77;;;20.20;;
32094;SDS011;18608;53.688;10.748;2022-12-05T03:26:45;62.03;;;22.13;;
32094;SDS011;18608;53.688;10.748;2022-12-05T03:29:34;49.70;;;21.13;;
32094;SDS011;18608;53.688;10.748;2022-12-05T03:37:21;59.63;;;23.53;;
32094;SDS011;18608;53.688;10.748;2022-12-05T03:40:06;58.17;;;25.00;;
32094;SDS011;18608;53.688;10.748;2022-12-05T03:42:34;69.10;;;23.10;;
32094;SDS011;18608;53.688;10.748;2022-12-05T03:45:07;38.13;;;17.80;;
32094;SDS011;18608;53.688;10.748;2022-12-05T03:47:45;55.57;;;21.70;;
32094;SDS011;18608;53.688;10.748;2022-12-05T03:50:26;56.23;;;19.97;;
32094;SDS011;18608;53.688;10.748;2022-12-05T03:52:54;80.63;;;28.23;;
32094;SDS011;18608;53.688;10.748;2022-12-05T03:55:28;38.60;;;19.37;;
32094;SDS011;18608;53.688;10.748;2022-12-05T03:58:01;70.73;;;25.53;;
32094;SDS011;18608;53.688;10.748;2022-12-05T04:00:34;63.07;;;21.97;;
32094;SDS011;18608;53.688;10.748;2022-12-05T04:03:11;61.17;;;24.33;;
32094;SDS011;18608;53.688;10.748;2022-12-05T04:05:42;70.97;;;24.07;;
32094;SDS011;18608;53.688;10.748;2022-12-05T04:08:28;78.13;;;25.70;;
32094;SDS011;18608;53.688;10.748;2022-12-05T04:11:02;64.90;;;23.77;;
32094;SDS011;18608;53.688;10.748;2022-12-05T04:13:32;46.43;;;19.93;;
32094;SDS011;18608;53.688;10.748;2022-12-05T04:16:03;55.37;;;19.87;;
32094;SDS011;18608;53.688;10.748;2022-12-05T04:19:32;77.27;;;22.87;;
32094;SDS011;18608;53.688;10.748;2022-12-05T04:22:35;70.13;;;26.33;;
32094;SDS011;18608;53.688;10.748;2022-12-05T04:25:04;63.97;;;22.43;;
32094;SDS011;18608;53.688;10.748;2022-12-05T04:31:15;78.03;;;25.47;;
32094;SDS011;18608;53.688;10.748;2022-12-05T04:36:13;60.03;;;19.50;;
32094;SDS011;18608;53.688;10.748;2022-12-05T04:38:47;66.27;;;24.13;;
32094;SDS011;18608;53.688;10.748;2022-12-05T04:41:32;60.17;;;23.00;;
32094;SDS011;18608;53.688;10.748;2022-12-05T04:44:03;66.30;;;26.10;;
32094;SDS011;18608;53.688;10.748;2022-12-05T04:46:32;49.60;;;19.23;;
32094;SDS011;18608;53.688;10.748;2022-12-05T04:49:00;73.37;;;26.77;;
32094;SDS011;18608;53.688;10.748;2022-12-05T04:51:30;65.30;;;24.00;;
32094;SDS011;18608;53.688;10.748;2022-12-05T04:54:04;73.00;;;26.67;;
32094;SDS011;18608;53.688;10.748;2022-12-05T04:56:42;82.13;;;26.77;;
32094;SDS011;18608;53.688;10.748;2022-12-05T04:59:11;79.20;;;26.03;;
32094;SDS011;18608;53.688;10.748;2022-12-05T05:01:59;101.20;;;29.43;;
32094;SDS011;18608;53.688;10.748;2022-12-05T05:04:45;75.70;;;23.83;;
32094;SDS011;18608;53.688;10.748;2022-12-05T05:07:13;44.30;;;15.97;;
32094;SDS011;18608;53.688;10.748;2022-12-05T05:09:39;60.60;;;20.17;;
32094;SDS011;18608;53.688;10.748;2022-12-05T05:12:05;56.67;;;23.30;;
32094;SDS011;18608;53.688;10.748;2022-12-05T05:14:31;83.70;;;28.53;;
32094;SDS011;18608;53.688;10.748;2022-12-05T05:16:57;87.83;;;29.20;;
32094;SDS011;18608;53.688;10.748;2022-12-05T05:19:23;64.23;;;21.80;;
32094;SDS011;18608;53.688;10.748;2022-12-05T05:21:49;75.57;;;25.87;;
32094;SDS011;18608;53.688;10.748;2022-12-05T05:24:15;87.90;;;28.37;;
32094;SDS011;18608;53.688;10.748;2022-12-05T05:26:41;76.70;;;23.20;;
32094;SDS011;18608;53.688;10.748;2022-12-05T05:29:08;82.97;;;29.77;;
32094;SDS011;18608;53.688;10.748;2022-12-05T05:31:35;95.57;;;28.33;;
32094;SDS011;18608;53.688;10.748;2022-12-05T05:34:01;76.40;;;29.80;;
32094;SDS011;18608;53.688;10.748;2022-12-05T05:36:27;88.97;;;29.60;;
32094;SDS011;18608;53.688;10.748;2022-12-05T05:38:54;86.87;;;27.50;;
32094;SDS011;18608;53.688;10.748;2022-12-05T05:41:42;81.30;;;26.50;;
32094;SDS011;18608;53.688;10.748;2022-12-05T05:44:07;72.47;;;27.23;;
32094;SDS011;18608;53.688;10.748;2022-12-05T05:46:33;76.83;;;27.87;;
32094;SDS011;18608;53.688;10.748;2022-12-05T05:48:59;48.03;;;18.33;;
32094;SDS011;18608;53.688;10.748;2022-12-05T05:51:25;66.93;;;24.47;;
32094;SDS011;18608;53.688;10.748;2022-12-05T05:53:53;50.17;;;17.63;;
32094;SDS011;18608;53.688;10.748;2022-12-05T05:56:19;66.13;;;21.53;;
32094;SDS011;18608;53.688;10.748;2022-12-05T05:58:46;69.37;;;21.80;;
32094;SDS011;18608;53.688;10.748;2022-12-05T06:01:13;51.40;;;20.50;;
32094;SDS011;18608;53.688;10.748;2022-12-05T06:03:40;70.77;;;26.17;;
32094;SDS011;18608;53.688;10.748;2022-12-05T06:06:07;72.83;;;22.33;;
32094;SDS011;18608;53.688;10.748;2022-12-05T06:08:36;65.50;;;24.50;;
32094;SDS011;18608;53.688;10.748;2022-12-05T06:11:09;56.30;;;20.77;;
32094;SDS011;18608;53.688;10.748;2022-12-05T06:13:36;46.97;;;20.00;;
32094;SDS011;18608;53.688;10.748;2022-12-05T06:16:06;77.47;;;23.07;;
32094;SDS011;18608;53.688;10.748;2022-12-05T06:18:33;67.43;;;24.10;;
32094;SDS011;18608;53.688;10.748;2022-12-05T06:20:59;56.97;;;20.77;;
32094;SDS011;18608;53.688;10.748;2022-12-05T06:23:24;67.73;;;22.30;;
32094;SDS011;18608;53.688;10.748;2022-12-05T06:25:51;42.73;;;15.83;;
32094;SDS011;18608;53.688;10.748;2022-12-05T06:28:18;63.63;;;20.80;;
32094;SDS011;18608;53.688;10.748;2022-12-05T06:30:45;66.37;;;22.77;;
32094;SDS011;18608;53.688;10.748;2022-12-05T06:33:10;67.20;;;20.20;;
32094;SDS011;18608;53.688;10.748;2022-12-05T06:35:37;63.70;;;20.87;;
32094;SDS011;18608;53.688;10.748;2022-12-05T06:38:02;71.77;;;20.63;;
32094;SDS011;18608;53.688;10.748;2022-12-05T06:40:28;50.60;;;20.20;;
32094;SDS011;18608;53.688;10.748;2022-12-05T06:42:54;56.57;;;19.33;;
32094;SDS011;18608;53.688;10.748;2022-12-05T06:45:19;68.23;;;24.73;;
32094;SDS011;18608;53.688;10.748;2022-12-05T06:47:45;65.23;;;22.13;;
32094;SDS011;18608;53.688;10.748;2022-12-05T06:50:11;44.90;;;16.83;;
32094;SDS011;18608;53.688;10.748;2022-12-05T06:52:36;72.20;;;21.77;;
32094;SDS011;18608;53.688;10.748;2022-12-05T06:55:02;45.63;;;15.57;;
32094;SDS011;18608;53.688;10.748;2022-12-05T06:57:28;80.90;;;26.77;;
32094;SDS011;18608;53.688;10.748;2022-12-05T06:59:53;53.77;;;20.57;;
32094;SDS011;18608;53.688;10.748;2022-12-05T07:02:39;65.13;;;23.50;;
32094;SDS011;18608;53.688;10.748;2022-12-05T07:05:08;79.73;;;25.60;;
32094;SDS011;18608;53.688;10.748;2022-12-05T07:07:34;60.03;;;25.67;;
32094;SDS011;18608;53.688;10.748;2022-12-05T07:10:00;73.60;;;24.43;;
32094;SDS011;18608;53.688;10.748;2022-12-05T07:12:26;75.47;;;23.60;;
32094;SDS011;18608;53.688;10.748;2022-12-05T07:14:52;73.80;;;23.90;;
32094;SDS011;18608;53.688;10.748;2022-12-05T07:17:18;69.87;;;25.23;;
32094;SDS011;18608;53.688;10.748;2022-12-05T07:19:48;96.67;;;24.67;;
32094;SDS011;18608;53.688;10.748;2022-12-05T07:22:15;61.77;;;19.70;;
32094;SDS011;18608;53.688;10.748;2022-12-05T07:24:45;66.00;;;22.60;;
32094;SDS011;18608;53.688;10.748;2022-12-05T07:27:12;73.80;;;26.20;;
32094;SDS011;18608;53.688;10.748;2022-12-05T07:29:38;82.77;;;26.80;;
32094;SDS011;18608;53.688;10.748;2022-12-05T07:32:04;78.93;;;24.33;;
32094;SDS011;18608;53.688;10.748;2022-12-05T07:34:31;71.07;;;25.40;;
32094;SDS011;18608;53.688;10.748;2022-12-05T07:36:56;70.70;;;23.37;;
32094;SDS011;18608;53.688;10.748;2022-12-05T07:39:22;65.73;;;23.60;;
32094;SDS011;18608;53.688;10.748;2022-12-05T07:41:48;50.27;;;18.17;;
32094;SDS011;18608;53.688;10.748;2022-12-05T07:44:13;59.90;;;21.20;;
32094;SDS011;18608;53.688;10.748;2022-12-05T07:46:39;49.00;;;21.17;;
32094;SDS011;18608;53.688;10.748;2022-12-05T07:49:05;63.73;;;19.23;;
32094;SDS011;18608;53.688;10.748;2022-12-05T07:51:31;73.83;;;22.57;;
32094;SDS011;18608;53.688;10.748;2022-12-05T07:53:58;85.03;;;26.20;;
32094;SDS011;18608;53.688;10.748;2022-12-05T07:56:24;49.93;;;17.53;;
32094;SDS011;18608;53.688;10.748;2022-12-05T07:58:49;72.03;;;23.50;;
32094;SDS011;18608;53.688;10.748;2022-12-05T08:01:17;75.30;;;28.10;;
32094;SDS011;18608;53.688;10.748;2022-12-05T08:03:45;70.00;;;27.00;;
32094;SDS011;18608;53.688;10.748;2022-12-05T08:06:12;73.30;;;24.20;;
32094;SDS011;18608;53.688;10.748;2022-12-05T08:08:39;77.50;;;26.10;;
32094;SDS011;18608;53.688;10.748;2022-12-05T08:11:12;80.10;;;26.20;;
32094;SDS011;18608;53.688;10.748;2022-12-05T08:13:39;78.23;;;28.33;;
32094;SDS011;18608;53.688;10.748;2022-12-05T08:16:06;79.10;;;26.40;;
32094;SDS011;18608;53.688;10.748;2022-12-05T08:18:36;49.60;;;20.73;;
32094;SDS011;18608;53.688;10.748;2022-12-05T08:21:03;60.27;;;23.43;;
32094;SDS011;18608;53.688;10.748;2022-12-05T08:23:30;85.33;;;26.90;;
32094;SDS011;18608;53.688;10.748;2022-12-05T08:26:03;72.13;;;22.83;;
32094;SDS011;18608;53.688;10.748;2022-12-05T08:28:30;70.60;;;25.83;;
32094;SDS011;18608;53.688;10.748;2022-12-05T08:31:01;70.37;;;25.67;;
32094;SDS011;18608;53.688;10.748;2022-12-05T08:33:38;76.93;;;21.83;;
32094;SDS011;18608;53.688;10.748;2022-12-05T08:36:05;93.60;;;25.83;;
32094;SDS011;18608;53.688;10.748;2022-12-05T08:38:33;66.37;;;23.40;;
32094;SDS011;18608;53.688;10.748;2022-12-05T08:40:59;67.07;;;22.67;;
32094;SDS011;18608;53.688;10.748;2022-12-05T08:43:26;60.30;;;25.57;;
32094;SDS011;18608;53.688;10.748;2022-12-05T08:45:53;70.57;;;23.67;;
32094;SDS011;18608;53.688;10.748;2022-12-05T08:48:18;70.63;;;25.17;;
32094;SDS011;18608;53.688;10.748;2022-12-05T08:50:45;68.67;;;25.07;;
32094;SDS011;18608;53.688;10.748;2022-12-05T08:53:11;49.57;;;18.70;;
32094;SDS011;18608;53.688;10.748;2022-12-05T08:55:37;72.57;;;23.37;;
32094;SDS011;18608;53.688;10.748;2022-12-05T08:58:03;53.90;;;19.57;;
32094;SDS011;18608;53.688;10.748;2022-12-05T09:00:29;61.93;;;23.57;;
32094;SDS011;18608;53.688;10.748;2022-12-05T09:02:55;57.80;;;21.47;;
32094;SDS011;18608;53.688;10.748;2022-12-05T09:05:22;50.57;;;22.27;;
32094;SDS011;18608;53.688;10.748;2022-12-05T09:07:48;61.37;;;25.47;;
32094;SDS011;18608;53.688;10.748;2022-12-05T09:10:14;70.27;;;23.37;;
32094;SDS011;18608;53.688;10.748;2022-12-05T09:12:39;72.53;;;26.03;;
32094;SDS011;18608;53.688;10.748;2022-12-05T09:15:05;55.00;;;22.47;;
32094;SDS011;18608;53.688;10.748;2022-12-05T09:17:32;59.07;;;25.13;;
32094;SDS011;18608;53.688;10.748;2022-12-05T09:19:58;50.27;;;20.43;;
32094;SDS011;18608;53.688;10.748;2022-12-05T09:22:23;41.77;;;18.60;;
32094;SDS011;18608;53.688;10.748;2022-12-05T09:24:49;56.60;;;23.10;;
32094;SDS011;18608;53.688;10.748;2022-12-05T09:27:15;52.70;;;23.20;;
32094;SDS011;18608;53.688;10.748;2022-12-05T09:29:40;50.40;;;20.37;;
32094;SDS011;18608;53.688;10.748;2022-12-05T09:32:07;56.70;;;19.47;;
32094;SDS011;18608;53.688;10.748;2022-12-05T09:34:33;45.87;;;20.23;;
32094;SDS011;18608;53.688;10.748;2022-12-05T09:37:00;49.80;;;19.57;;
32094;SDS011;18608;53.688;10.748;2022-12-05T09:39:26;51.53;;;19.67;;
32094;SDS011;18608;53.688;10.748;2022-12-05T09:42:37;48.27;;;20.83;;
32094;SDS011;18608;53.688;10.748;2022-12-05T09:55:20;50.33;;;19.63;;
32094;SDS011;18608;53.688;10.748;2022-12-05T09:57:51;53.53;;;20.10;;
32094;SDS011;18608;53.688;10.748;2022-12-05T10:00:21;51.57;;;21.23;;
32094;SDS011;18608;53.688;10.748;2022-12-05T10:08:28;49.57;;;19.83;;
32094;SDS011;18608;53.688;10.748;2022-12-05T10:11:02;54.80;;;20.90;;
32094;SDS011;18608;53.688;10.748;2022-12-05T10:13:44;48.70;;;18.70;;
32094;SDS011;18608;53.688;10.748;2022-12-05T10:16:37;44.70;;;16.07;;
32094;SDS011;18608;53.688;10.748;2022-12-05T10:19:33;30.40;;;14.10;;
32094;SDS011;18608;53.688;10.748;2022-12-05T10:22:08;31.67;;;14.63;;
32094;SDS011;18608;53.688;10.748;2022-12-05T10:24:38;44.40;;;18.00;;
32094;SDS011;18608;53.688;10.748;2022-12-05T10:27:07;40.63;;;15.17;;
32094;SDS011;18608;53.688;10.748;2022-12-05T10:29:44;35.93;;;13.70;;
32094;SDS011;18608;53.688;10.748;2022-12-05T10:32:24;56.30;;;14.10;;
32094;SDS011;18608;53.688;10.748;2022-12-05T10:34:58;31.23;;;14.00;;
32094;SDS011;18608;53.688;10.748;2022-12-05T10:37:30;45.47;;;17.20;;
32094;SDS011;18608;53.688;10.748;2022-12-05T10:39:56;43.90;;;17.53;;
32094;SDS011;18608;53.688;10.748;2022-12-05T10:42:26;41.93;;;16.40;;
32094;SDS011;18608;53.688;10.748;2022-12-05T10:44:56;49.60;;;18.53;;
32094;SDS011;18608;53.688;10.748;2022-12-05T10:47:24;38.93;;;14.73;;
32094;SDS011;18608;53.688;10.748;2022-12-05T10:49:50;43.73;;;18.30;;
32094;SDS011;18608;53.688;10.748;2022-12-05T10:52:18;39.93;;;19.53;;
32094;SDS011;18608;53.688;10.748;2022-12-05T10:54:48;41.50;;;17.07;;
32094;SDS011;18608;53.688;10.748;2022-12-05T10:57:20;43.80;;;17.87;;
32094;SDS011;18608;53.688;10.748;2022-12-05T10:59:51;40.20;;;15.93;;
32094;SDS011;18608;53.688;10.748;2022-12-05T11:02:27;37.90;;;16.37;;
32094;SDS011;18608;53.688;10.748;2022-12-05T11:04:55;41.63;;;17.10;;
32094;SDS011;18608;53.688;10.748;2022-12-05T11:07:29;39.90;;;18.77;;
32094;SDS011;18608;53.688;10.748;2022-12-05T11:09:57;44.77;;;17.90;;
32094;SDS011;18608;53.688;10.748;2022-12-05T11:12:28;41.90;;;16.13;;
32094;SDS011;18608;53.688;10.748;2022-12-05T11:15:04;51.10;;;18.47;;
32094;SDS011;18608;53.688;10.748;2022-12-05T11:17:39;61.53;;;18.03;;
32094;SDS011;18608;53.688;10.748;2022-12-05T11:22:46;42.33;;;16.33;;
32094;SDS011;18608;53.688;10.748;2022-12-05T11:25:30;35.10;;;13.93;;
32094;SDS011;18608;53.688;10.748;2022-12-05T11:27:58;41.37;;;17.57;;
32094;SDS011;18608;53.688;10.748;2022-12-05T11:36:42;36.67;;;13.07;;
32094;SDS011;18608;53.688;10.748;2022-12-05T11:39:30;46.97;;;17.37;;
32094;SDS011;18608;53.688;10.748;2022-12-05T11:41:59;44.47;;;16.10;;
32094;SDS011;18608;53.688;10.748;2022-12-05T12:12:11;35.77;;;15.20;;
32094;SDS011;18608;53.688;10.748;2022-12-05T12:14:34;39.70;;;15.23;;
32094;SDS011;18608;53.688;10.748;2022-12-05T12:17:59;37.03;;;16.27;;
32094;SDS011;18608;53.688;10.748;2022-12-05T12:20:37;34.77;;;13.50;;
32094;SDS011;18608;53.688;10.748;2022-12-05T12:29:31;33.57;;;15.40;;
32094;SDS011;18608;53.688;10.748;2022-12-05T12:32:10;33.97;;;13.47;;
32094;SDS011;18608;53.688;10.748;2022-12-05T12:34:50;36.43;;;14.80;;
32094;SDS011;18608;53.688;10.748;2022-12-05T12:44:08;32.90;;;14.77;;
32094;SDS011;18608;53.688;10.748;2022-12-05T12:52:21;33.63;;;13.90;;
32094;SDS011;18608;53.688;10.748;2022-12-05T12:57:46;33.93;;;14.87;;
32094;SDS011;18608;53.688;10.748;2022-12-05T13:03:31;37.37;;;14.10;;
32094;SDS011;18608;53.688;10.748;2022-12-05T13:06:40;23.97;;;12.10;;
32094;SDS011;18608;53.688;10.748;2022-12-05T13:09:17;36.37;;;14.83;;
32094;SDS011;18608;53.688;10.748;2022-12-05T13:11:50;29.00;;;13.40;;
32094;SDS011;18608;53.688;10.748;2022-12-05T13:14:19;30.47;;;12.90;;
32094;SDS011;18608;53.688;10.748;2022-12-05T13:16:49;24.00;;;12.83;;
32094;SDS011;18608;53.688;10.748;2022-12-05T13:19:41;37.77;;;14.07;;
32094;SDS011;18608;53.688;10.748;2022-12-05T13:22:08;27.30;;;12.77;;
32094;SDS011;18608;53.688;10.748;2022-12-05T13:24:35;32.63;;;14.17;;
32094;SDS011;18608;53.688;10.748;2022-12-05T13:27:03;34.90;;;12.63;;
32094;SDS011;18608;53.688;10.748;2022-12-05T13:29:32;34.27;;;13.23;;
32094;SDS011;18608;53.688;10.748;2022-12-05T13:32:02;25.80;;;11.70;;
32094;SDS011;18608;53.688;10.748;2022-12-05T13:34:39;29.30;;;12.40;;
32094;SDS011;18608;53.688;10.748;2022-12-05T13:37:22;27.00;;;12.37;;
32094;SDS011;18608;53.688;10.748;2022-12-05T13:43:11;30.43;;;12.80;;
32094;SDS011;18608;53.688;10.748;2022-12-05T13:45:39;22.20;;;11.13;;
32094;SDS011;18608;53.688;10.748;2022-12-05T14:25:33;26.43;;;12.37;;
32094;SDS011;18608;53.688;10.748;2022-12-05T14:31:30;27.03;;;12.23;;
32094;SDS011;18608;53.688;10.748;2022-12-05T14:34:17;34.37;;;13.30;;
32094;SDS011;18608;53.688;10.748;2022-12-05T14:37:31;28.13;;;12.10;;
32094;SDS011;18608;53.688;10.748;2022-12-05T14:39:43;24.10;;;12.10;;
32094;SDS011;18608;53.688;10.748;2022-12-05T14:42:21;22.80;;;11.80;;
32094;SDS011;18608;53.688;10.748;2022-12-05T14:44:52;27.60;;;11.47;;
32094;SDS011;18608;53.688;10.748;2022-12-05T14:47:22;21.73;;;11.60;;
32094;SDS011;18608;53.688;10.748;2022-12-05T14:53:13;25.80;;;11.37;;
32094;SDS011;18608;53.688;10.748;2022-12-05T14:58:34;23.43;;;11.20;;
32094;SDS011;18608;53.688;10.748;2022-12-05T15:09:53;21.03;;;11.50;;
32094;SDS011;18608;53.688;10.748;2022-12-05T15:13:21;25.90;;;11.30;;
32094;SDS011;18608;53.688;10.748;2022-12-05T15:18:23;31.10;;;11.77;;
32094;SDS011;18608;53.688;10.748;2022-12-05T15:23:47;28.17;;;10.17;;
32094;SDS011;18608;53.688;10.748;2022-12-05T15:29:02;22.30;;;11.17;;
32094;SDS011;18608;53.688;10.748;2022-12-05T15:31:35;29.13;;;12.00;;
32094;SDS011;18608;53.688;10.748;2022-12-05T15:36:46;25.60;;;11.77;;
32094;SDS011;18608;53.688;10.748;2022-12-05T15:39:19;20.80;;;11.10;;
32094;SDS011;18608;53.688;10.748;2022-12-05T15:41:49;24.50;;;10.93;;
32094;SDS011;18608;53.688;10.748;2022-12-05T15:44:16;20.10;;;11.57;;
32094;SDS011;18608;53.688;10.748;2022-12-05T15:46:43;14.17;;;8.07;;
32094;SDS011;18608;53.688;10.748;2022-12-05T15:49:16;31.20;;;11.17;;
32094;SDS011;18608;53.688;10.748;2022-12-05T15:51:45;21.73;;;8.93;;
32094;SDS011;18608;53.688;10.748;2022-12-05T15:54:19;25.20;;;10.87;;
32094;SDS011;18608;53.688;10.748;2022-12-05T15:56:54;22.57;;;10.63;;
32094;SDS011;18608;53.688;10.748;2022-12-05T15:59:30;18.77;;;8.33;;
32094;SDS011;18608;53.688;10.748;2022-12-05T16:04:48;25.70;;;10.40;;
32094;SDS011;18608;53.688;10.748;2022-12-05T16:07:17;17.30;;;9.97;;
32094;SDS011;18608;53.688;10.748;2022-12-05T16:09:44;18.47;;;8.47;;
32094;SDS011;18608;53.688;10.748;2022-12-05T16:14:48;21.87;;;8.70;;
32094;SDS011;18608;53.688;10.748;2022-12-05T16:17:16;22.83;;;9.97;;
32094;SDS011;18608;53.688;10.748;2022-12-05T16:19:42;26.90;;;11.03;;
32094;SDS011;18608;53.688;10.748;2022-12-05T16:22:15;29.10;;;10.63;;
32094;SDS011;18608;53.688;10.748;2022-12-05T16:30:12;19.97;;;10.13;;
32094;SDS011;18608;53.688;10.748;2022-12-05T16:32:41;21.67;;;9.90;;
32094;SDS011;18608;53.688;10.748;2022-12-05T16:38:14;20.47;;;10.47;;
32094;SDS011;18608;53.688;10.748;2022-12-05T16:45:51;20.63;;;10.83;;
32094;SDS011;18608;53.688;10.748;2022-12-05T16:50:47;28.23;;;12.17;;
32094;SDS011;18608;53.688;10.748;2022-12-05T16:55:51;19.70;;;11.57;;
32094;SDS011;18608;53.688;10.748;2022-12-05T16:58:19;17.20;;;11.60;;
32094;SDS011;18608;53.688;10.748;2022-12-05T17:00:49;19.03;;;9.93;;
32094;SDS011;18608;53.688;10.748;2022-12-05T17:03:14;19.73;;;11.30;;
32094;SDS011;18608;53.688;10.748;2022-12-05T17:05:41;22.90;;;11.50;;
32094;SDS011;18608;53.688;10.748;2022-12-05T17:08:06;25.63;;;14.00;;
32094;SDS011;18608;53.688;10.748;2022-12-05T17:10:32;24.60;;;13.40;;
32094;SDS011;18608;53.688;10.748;2022-12-05T17:12:58;18.13;;;11.07;;
32094;SDS011;18608;53.688;10.748;2022-12-05T17:15:25;20.47;;;11.50;;
32094;SDS011;18608;53.688;10.748;2022-12-05T17:17:51;26.73;;;14.30;;
32094;SDS011;18608;53.688;10.748;2022-12-05T17:20:17;34.77;;;18.20;;
32094;SDS011;18608;53.688;10.748;2022-12-05T17:22:42;27.47;;;15.73;;
32094;SDS011;18608;53.688;10.748;2022-12-05T17:25:26;26.93;;;13.20;;
32094;SDS011;18608;53.688;10.748;2022-12-05T17:27:55;25.10;;;12.37;;
32094;SDS011;18608;53.688;10.748;2022-12-05T17:30:22;23.67;;;11.03;;
32094;SDS011;18608;53.688;10.748;2022-12-05T17:32:48;27.53;;;12.77;;
32094;SDS011;18608;53.688;10.748;2022-12-05T17:35:15;26.10;;;13.30;;
32094;SDS011;18608;53.688;10.748;2022-12-05T17:37:42;27.27;;;13.70;;
32094;SDS011;18608;53.688;10.748;2022-12-05T17:40:07;32.03;;;14.50;;
32094;SDS011;18608;53.688;10.748;2022-12-05T17:42:33;28.77;;;13.60;;
32094;SDS011;18608;53.688;10.748;2022-12-05T17:44:59;30.17;;;13.77;;
32094;SDS011;18608;53.688;10.748;2022-12-05T17:47:25;27.00;;;13.40;;
32094;SDS011;18608;53.688;10.748;2022-12-05T17:49:50;22.10;;;12.70;;
32094;SDS011;18608;53.688;10.748;2022-12-05T17:52:16;26.73;;;11.90;;
32094;SDS011;18608;53.688;10.748;2022-12-05T17:54:42;25.30;;;11.87;;
32094;SDS011;18608;53.688;10.748;2022-12-05T17:57:08;24.57;;;11.40;;